aviador You're here:

SKBQ Decoded Metar

BARRANQUILLA in COLOMBIA
Report Time2017-08-21 23:00:00
UTC Time2017-08-21 23:55:24
Flight Rules vfr VFR
Wind010° at 03 kt
W.Decomp.*RWY 05: 2.5 kt HW 1.6 kt LCW
W.Rank010° ranks 1
Current wind is below 010° avg. (7.6)
Visibility9999 m
Phenomena:N/A
Clouds:Scattered 020 Hf
Scattered 090 Hf
Expected CloudBase > 1,600 ft AGL from Temp-Dew spread
CeilingNone
Temp29°C (ISA +14)
Dew Point25°C (79% RH)
Heat Index34.5°C
QNH1010 hPa
Density Alt2,165 ft
Elevation33 ft
Report Wrong Elevation
Raw Report
METAR SKBQ 212300Z 01003KT 9999 SCT020 SCT090 29/25 A2982=

Extra information for SKBQ:More info

Metar Taf Metar & Taf Last 4 Metars F.Rules Stats Wind Profile Meteogram Temp Stats Airport Information Weather charts Add Link Nearby VenuesMetar ALERT Operation Metar Decoded Social comments